sensor_id;sensor_type;location;lat;lon;timestamp;temperature;humidity
6363;DHT22;3214;49.932;8.494;2024-03-02T00:01:41;5.80;99.90
6363;DHT22;3214;49.932;8.494;2024-03-02T00:04:09;5.70;99.90
6363;DHT22;3214;49.932;8.494;2024-03-02T00:06:36;5.70;99.90
6363;DHT22;3214;49.932;8.494;2024-03-02T00:09:04;5.60;99.90
6363;DHT22;3214;49.932;8.494;2024-03-02T00:11:30;5.50;99.90
6363;DHT22;3214;49.932;8.494;2024-03-02T00:13:58;5.50;99.90
6363;DHT22;3214;49.932;8.494;2024-03-02T00:16:30;5.40;99.90
6363;DHT22;3214;49.932;8.494;2024-03-02T00:19:01;5.40;99.90
6363;DHT22;3214;49.932;8.494;2024-03-02T00:21:30;5.40;99.90
6363;DHT22;3214;49.932;8.494;2024-03-02T00:23:58;5.40;99.90
6363;DHT22;3214;49.932;8.494;2024-03-02T00:26:25;5.50;99.90
6363;DHT22;3214;49.932;8.494;2024-03-02T00:28:54;5.40;99.90
6363;DHT22;3214;49.932;8.494;2024-03-02T00:31:22;5.40;99.90
6363;DHT22;3214;49.932;8.494;2024-03-02T00:33:52;5.40;99.90
6363;DHT22;3214;49.932;8.494;2024-03-02T00:36:24;5.40;99.90
6363;DHT22;3214;49.932;8.494;2024-03-02T00:38:53;5.40;99.90
6363;DHT22;3214;49.932;8.494;2024-03-02T00:41:22;5.30;99.90
6363;DHT22;3214;49.932;8.494;2024-03-02T00:43:57;5.40;99.90
6363;DHT22;3214;49.932;8.494;2024-03-02T00:46:24;5.30;99.90
6363;DHT22;3214;49.932;8.494;2024-03-02T00:48:56;5.40;99.90
6363;DHT22;3214;49.932;8.494;2024-03-02T00:51:24;5.30;99.90
6363;DHT22;3214;49.932;8.494;2024-03-02T00:53:52;5.20;99.90
6363;DHT22;3214;49.932;8.494;2024-03-02T00:56:21;5.10;99.90
6363;DHT22;3214;49.932;8.494;2024-03-02T00:58:49;5.10;99.90
6363;DHT22;3214;49.932;8.494;2024-03-02T01:01:15;5.20;99.90
6363;DHT22;3214;49.932;8.494;2024-03-02T01:03:42;5.40;99.90
6363;DHT22;3214;49.932;8.494;2024-03-02T01:06:10;5.40;99.90
6363;DHT22;3214;49.932;8.494;2024-03-02T01:08:37;5.40;99.90
6363;DHT22;3214;49.932;8.494;2024-03-02T01:11:04;5.50;99.90
6363;DHT22;3214;49.932;8.494;2024-03-02T01:13:31;5.40;99.90
6363;DHT22;3214;49.932;8.494;2024-03-02T01:15:58;5.30;99.90
6363;DHT22;3214;49.932;8.494;2024-03-02T01:18:25;5.10;99.90
6363;DHT22;3214;49.932;8.494;2024-03-02T01:20:52;5.10;99.90
6363;DHT22;3214;49.932;8.494;2024-03-02T01:23:22;5.10;99.90
6363;DHT22;3214;49.932;8.494;2024-03-02T01:25:49;5.10;99.90
6363;DHT22;3214;49.932;8.494;2024-03-02T01:28:17;5.10;99.90
6363;DHT22;3214;49.932;8.494;2024-03-02T01:30:44;5.00;99.90
6363;DHT22;3214;49.932;8.494;2024-03-02T01:33:10;5.00;99.90
6363;DHT22;3214;49.932;8.494;2024-03-02T01:35:37;5.00;99.90
6363;DHT22;3214;49.932;8.494;2024-03-02T01:38:04;5.00;99.90
6363;DHT22;3214;49.932;8.494;2024-03-02T01:40:34;5.00;99.90
6363;DHT22;3214;49.932;8.494;2024-03-02T01:43:00;4.90;99.90
6363;DHT22;3214;49.932;8.494;2024-03-02T01:45:28;4.70;99.90
6363;DHT22;3214;49.932;8.494;2024-03-02T01:47:55;4.60;99.90
6363;DHT22;3214;49.932;8.494;2024-03-02T01:50:25;4.60;99.90
6363;DHT22;3214;49.932;8.494;2024-03-02T01:52:52;4.50;99.90
6363;DHT22;3214;49.932;8.494;2024-03-02T01:55:19;4.50;99.90
6363;DHT22;3214;49.932;8.494;2024-03-02T01:57:48;4.60;99.90
6363;DHT22;3214;49.932;8.494;2024-03-02T02:00:16;4.50;99.90
6363;DHT22;3214;49.932;8.494;2024-03-02T02:02:43;4.50;99.90
6363;DHT22;3214;49.932;8.494;2024-03-02T02:05:10;4.40;99.90
6363;DHT22;3214;49.932;8.494;2024-03-02T02:07:37;4.30;99.90
6363;DHT22;3214;49.932;8.494;2024-03-02T02:10:04;4.40;99.90
6363;DHT22;3214;49.932;8.494;2024-03-02T02:12:32;4.40;99.90
6363;DHT22;3214;49.932;8.494;2024-03-02T02:15:00;4.50;99.90
6363;DHT22;3214;49.932;8.494;2024-03-02T02:17:28;4.60;99.90
6363;DHT22;3214;49.932;8.494;2024-03-02T02:19:55;4.60;99.90
6363;DHT22;3214;49.932;8.494;2024-03-02T02:22:24;4.70;99.90
6363;DHT22;3214;49.932;8.494;2024-03-02T02:24:51;4.80;99.90
6363;DHT22;3214;49.932;8.494;2024-03-02T02:27:18;4.80;99.90
6363;DHT22;3214;49.932;8.494;2024-03-02T02:29:45;4.80;99.90
6363;DHT22;3214;49.932;8.494;2024-03-02T02:32:12;4.70;99.90
6363;DHT22;3214;49.932;8.494;2024-03-02T02:34:38;4.80;99.90
6363;DHT22;3214;49.932;8.494;2024-03-02T02:37:05;4.80;99.90
6363;DHT22;3214;49.932;8.494;2024-03-02T02:39:33;4.80;99.90
6363;DHT22;3214;49.932;8.494;2024-03-02T02:42:00;4.70;99.90
6363;DHT22;3214;49.932;8.494;2024-03-02T02:44:28;4.70;99.90
6363;DHT22;3214;49.932;8.494;2024-03-02T02:46:54;4.70;99.90
6363;DHT22;3214;49.932;8.494;2024-03-02T02:49:21;4.70;99.90
6363;DHT22;3214;49.932;8.494;2024-03-02T02:51:48;4.70;99.90
6363;DHT22;3214;49.932;8.494;2024-03-02T02:54:14;4.70;99.90
6363;DHT22;3214;49.932;8.494;2024-03-02T02:56:43;4.80;99.90
6363;DHT22;3214;49.932;8.494;2024-03-02T02:59:09;4.80;99.90
6363;DHT22;3214;49.932;8.494;2024-03-02T03:01:36;4.70;99.90
6363;DHT22;3214;49.932;8.494;2024-03-02T03:04:03;4.60;99.90
6363;DHT22;3214;49.932;8.494;2024-03-02T03:06:30;4.70;99.90
6363;DHT22;3214;49.932;8.494;2024-03-02T03:08:57;4.70;99.90
6363;DHT22;3214;49.932;8.494;2024-03-02T03:11:23;4.80;99.90
6363;DHT22;3214;49.932;8.494;2024-03-02T03:13:53;4.80;99.90
6363;DHT22;3214;49.932;8.494;2024-03-02T03:16:20;4.80;99.90
6363;DHT22;3214;49.932;8.494;2024-03-02T03:18:47;4.80;99.90
6363;DHT22;3214;49.932;8.494;2024-03-02T03:21:16;4.80;99.90
6363;DHT22;3214;49.932;8.494;2024-03-02T03:23:43;4.70;99.90
6363;DHT22;3214;49.932;8.494;2024-03-02T03:26:10;4.60;99.90
6363;DHT22;3214;49.932;8.494;2024-03-02T03:28:37;4.50;99.90
6363;DHT22;3214;49.932;8.494;2024-03-02T03:31:05;4.50;99.90
6363;DHT22;3214;49.932;8.494;2024-03-02T03:33:32;4.40;99.90
6363;DHT22;3214;49.932;8.494;2024-03-02T03:35:59;4.40;99.90
6363;DHT22;3214;49.932;8.494;2024-03-02T03:38:26;4.40;99.90
6363;DHT22;3214;49.932;8.494;2024-03-02T03:40:53;4.40;99.90
6363;DHT22;3214;49.932;8.494;2024-03-02T03:43:20;4.40;99.90
6363;DHT22;3214;49.932;8.494;2024-03-02T03:45:47;4.30;99.90
6363;DHT22;3214;49.932;8.494;2024-03-02T03:48:15;4.20;99.90
6363;DHT22;3214;49.932;8.494;2024-03-02T03:50:42;4.10;99.90
6363;DHT22;3214;49.932;8.494;2024-03-02T03:53:08;4.20;99.90
6363;DHT22;3214;49.932;8.494;2024-03-02T03:55:35;4.20;99.90
6363;DHT22;3214;49.932;8.494;2024-03-02T03:58:02;4.30;99.90
6363;DHT22;3214;49.932;8.494;2024-03-02T04:00:28;4.30;99.90
6363;DHT22;3214;49.932;8.494;2024-03-02T04:02:55;4.40;99.90
6363;DHT22;3214;49.932;8.494;2024-03-02T04:05:24;4.40;99.90
6363;DHT22;3214;49.932;8.494;2024-03-02T04:07:51;4.50;99.90
6363;DHT22;3214;49.932;8.494;2024-03-02T04:10:18;4.50;99.90
6363;DHT22;3214;49.932;8.494;2024-03-02T04:12:46;4.50;99.90
6363;DHT22;3214;49.932;8.494;2024-03-02T04:15:13;4.40;99.90
6363;DHT22;3214;49.932;8.494;2024-03-02T04:17:39;4.40;99.90
6363;DHT22;3214;49.932;8.494;2024-03-02T04:20:07;4.40;99.90
6363;DHT22;3214;49.932;8.494;2024-03-02T04:22:35;4.50;99.90
6363;DHT22;3214;49.932;8.494;2024-03-02T04:25:02;4.50;99.90
6363;DHT22;3214;49.932;8.494;2024-03-02T04:27:30;4.60;99.90
6363;DHT22;3214;49.932;8.494;2024-03-02T04:29:58;4.50;99.90
6363;DHT22;3214;49.932;8.494;2024-03-02T04:32:26;4.60;99.90
6363;DHT22;3214;49.932;8.494;2024-03-02T04:34:52;4.60;99.90
6363;DHT22;3214;49.932;8.494;2024-03-02T04:37:19;4.60;99.90
6363;DHT22;3214;49.932;8.494;2024-03-02T04:39:47;4.60;99.90
6363;DHT22;3214;49.932;8.494;2024-03-02T04:42:14;4.60;99.90
6363;DHT22;3214;49.932;8.494;2024-03-02T04:44:41;4.60;99.90
6363;DHT22;3214;49.932;8.494;2024-03-02T04:47:07;4.60;99.90
6363;DHT22;3214;49.932;8.494;2024-03-02T04:49:34;4.70;99.90
6363;DHT22;3214;49.932;8.494;2024-03-02T04:52:01;4.70;99.90
6363;DHT22;3214;49.932;8.494;2024-03-02T04:54:28;4.70;99.90
6363;DHT22;3214;49.932;8.494;2024-03-02T04:56:56;4.70;99.90
6363;DHT22;3214;49.932;8.494;2024-03-02T04:59:22;4.70;99.90
6363;DHT22;3214;49.932;8.494;2024-03-02T05:01:49;4.60;99.90
6363;DHT22;3214;49.932;8.494;2024-03-02T05:04:16;4.60;99.90
6363;DHT22;3214;49.932;8.494;2024-03-02T05:06:43;4.50;99.90
6363;DHT22;3214;49.932;8.494;2024-03-02T05:09:16;4.60;99.90
6363;DHT22;3214;49.932;8.494;2024-03-02T05:11:42;4.50;99.90
6363;DHT22;3214;49.932;8.494;2024-03-02T05:14:36;4.50;99.90
6363;DHT22;3214;49.932;8.494;2024-03-02T05:17:03;4.40;99.90
6363;DHT22;3214;49.932;8.494;2024-03-02T05:19:30;4.30;99.90
6363;DHT22;3214;49.932;8.494;2024-03-02T05:21:57;4.20;99.90
6363;DHT22;3214;49.932;8.494;2024-03-02T05:24:23;4.20;99.90
6363;DHT22;3214;49.932;8.494;2024-03-02T05:26:52;4.20;99.90
6363;DHT22;3214;49.932;8.494;2024-03-02T05:29:19;4.20;99.90
6363;DHT22;3214;49.932;8.494;2024-03-02T05:31:47;4.10;99.90
6363;DHT22;3214;49.932;8.494;2024-03-02T05:34:14;4.20;99.90
6363;DHT22;3214;49.932;8.494;2024-03-02T05:36:40;4.20;99.90
6363;DHT22;3214;49.932;8.494;2024-03-02T05:39:07;4.30;99.90
6363;DHT22;3214;49.932;8.494;2024-03-02T05:41:34;4.40;99.90
6363;DHT22;3214;49.932;8.494;2024-03-02T05:44:01;4.40;99.90
6363;DHT22;3214;49.932;8.494;2024-03-02T05:46:28;4.20;99.90
6363;DHT22;3214;49.932;8.494;2024-03-02T05:48:56;4.20;99.90
6363;DHT22;3214;49.932;8.494;2024-03-02T05:51:23;4.10;99.90
6363;DHT22;3214;49.932;8.494;2024-03-02T05:53:49;4.00;99.90
6363;DHT22;3214;49.932;8.494;2024-03-02T05:56:16;4.00;99.90
6363;DHT22;3214;49.932;8.494;2024-03-02T05:58:43;4.10;99.90
6363;DHT22;3214;49.932;8.494;2024-03-02T06:01:23;4.20;99.90
6363;DHT22;3214;49.932;8.494;2024-03-02T06:03:55;4.20;99.90
6363;DHT22;3214;49.932;8.494;2024-03-02T06:06:22;4.30;99.90
6363;DHT22;3214;49.932;8.494;2024-03-02T06:08:49;4.30;99.90
6363;DHT22;3214;49.932;8.494;2024-03-02T06:11:15;4.20;99.90
6363;DHT22;3214;49.932;8.494;2024-03-02T06:13:42;4.10;99.90
6363;DHT22;3214;49.932;8.494;2024-03-02T06:16:09;4.10;99.90
6363;DHT22;3214;49.932;8.494;2024-03-02T06:18:35;4.20;99.90
6363;DHT22;3214;49.932;8.494;2024-03-02T06:21:04;4.20;99.90
6363;DHT22;3214;49.932;8.494;2024-03-02T06:23:31;4.20;99.90
6363;DHT22;3214;49.932;8.494;2024-03-02T06:25:58;4.20;99.90
6363;DHT22;3214;49.932;8.494;2024-03-02T06:28:24;4.30;99.90
6363;DHT22;3214;49.932;8.494;2024-03-02T06:30:52;4.30;99.90
6363;DHT22;3214;49.932;8.494;2024-03-02T06:33:19;4.30;99.90
6363;DHT22;3214;49.932;8.494;2024-03-02T06:35:46;4.30;99.90
6363;DHT22;3214;49.932;8.494;2024-03-02T06:38:16;4.20;99.90
6363;DHT22;3214;49.932;8.494;2024-03-02T06:40:42;4.20;99.90
6363;DHT22;3214;49.932;8.494;2024-03-02T06:43:09;4.20;99.90
6363;DHT22;3214;49.932;8.494;2024-03-02T06:45:36;4.20;99.90
6363;DHT22;3214;49.932;8.494;2024-03-02T06:48:03;4.30;99.90
6363;DHT22;3214;49.932;8.494;2024-03-02T06:50:30;4.30;99.90
6363;DHT22;3214;49.932;8.494;2024-03-02T06:52:57;4.40;99.90
6363;DHT22;3214;49.932;8.494;2024-03-02T06:55:25;4.50;99.90
6363;DHT22;3214;49.932;8.494;2024-03-02T06:57:52;4.40;99.90
6363;DHT22;3214;49.932;8.494;2024-03-02T07:00:19;4.40;99.90
6363;DHT22;3214;49.932;8.494;2024-03-02T07:02:46;4.30;99.90
6363;DHT22;3214;49.932;8.494;2024-03-02T07:05:13;4.20;99.90
6363;DHT22;3214;49.932;8.494;2024-03-02T07:07:40;4.10;99.90
6363;DHT22;3214;49.932;8.494;2024-03-02T07:10:07;4.10;99.90
6363;DHT22;3214;49.932;8.494;2024-03-02T07:12:36;4.10;99.90
6363;DHT22;3214;49.932;8.494;2024-03-02T07:15:04;4.10;99.90
6363;DHT22;3214;49.932;8.494;2024-03-02T07:17:48;4.20;99.90
6363;DHT22;3214;49.932;8.494;2024-03-02T07:20:15;4.30;99.90
6363;DHT22;3214;49.932;8.494;2024-03-02T07:22:42;4.40;99.90
6363;DHT22;3214;49.932;8.494;2024-03-02T07:25:09;4.40;99.90
6363;DHT22;3214;49.932;8.494;2024-03-02T07:27:37;4.40;99.90
6363;DHT22;3214;49.932;8.494;2024-03-02T07:30:05;4.50;99.90
6363;DHT22;3214;49.932;8.494;2024-03-02T07:32:32;4.60;99.90
6363;DHT22;3214;49.932;8.494;2024-03-02T07:34:59;4.70;99.90
6363;DHT22;3214;49.932;8.494;2024-03-02T07:37:26;4.70;99.90
6363;DHT22;3214;49.932;8.494;2024-03-02T07:39:53;4.80;99.90
6363;DHT22;3214;49.932;8.494;2024-03-02T07:42:20;4.80;99.90
6363;DHT22;3214;49.932;8.494;2024-03-02T07:44:49;4.90;99.90
6363;DHT22;3214;49.932;8.494;2024-03-02T07:47:15;5.00;99.90
6363;DHT22;3214;49.932;8.494;2024-03-02T07:49:44;5.20;99.90
6363;DHT22;3214;49.932;8.494;2024-03-02T07:52:10;5.30;99.90
6363;DHT22;3214;49.932;8.494;2024-03-02T07:54:37;5.40;99.90
6363;DHT22;3214;49.932;8.494;2024-03-02T07:57:04;5.60;99.90
6363;DHT22;3214;49.932;8.494;2024-03-02T07:59:30;5.60;99.90
6363;DHT22;3214;49.932;8.494;2024-03-02T08:01:58;5.80;99.90
6363;DHT22;3214;49.932;8.494;2024-03-02T08:04:26;5.90;99.90
6363;DHT22;3214;49.932;8.494;2024-03-02T08:06:53;6.10;99.90
6363;DHT22;3214;49.932;8.494;2024-03-02T08:09:20;6.00;99.90
6363;DHT22;3214;49.932;8.494;2024-03-02T08:11:47;6.00;99.90
6363;DHT22;3214;49.932;8.494;2024-03-02T08:14:13;6.00;99.90
6363;DHT22;3214;49.932;8.494;2024-03-02T08:16:40;6.10;99.90
6363;DHT22;3214;49.932;8.494;2024-03-02T08:19:09;6.10;99.90
6363;DHT22;3214;49.932;8.494;2024-03-02T08:21:36;6.20;99.90
6363;DHT22;3214;49.932;8.494;2024-03-02T08:24:03;6.30;99.90
6363;DHT22;3214;49.932;8.494;2024-03-02T08:26:30;6.30;99.90
6363;DHT22;3214;49.932;8.494;2024-03-02T08:28:57;6.40;99.90
6363;DHT22;3214;49.932;8.494;2024-03-02T08:31:24;6.50;99.90
6363;DHT22;3214;49.932;8.494;2024-03-02T08:33:50;6.50;99.90
6363;DHT22;3214;49.932;8.494;2024-03-02T08:36:19;6.60;99.90
6363;DHT22;3214;49.932;8.494;2024-03-02T08:38:46;6.60;99.90
6363;DHT22;3214;49.932;8.494;2024-03-02T08:41:13;6.70;99.90
6363;DHT22;3214;49.932;8.494;2024-03-02T08:43:42;6.70;99.90
6363;DHT22;3214;49.932;8.494;2024-03-02T08:46:09;6.80;99.90
6363;DHT22;3214;49.932;8.494;2024-03-02T08:48:35;6.90;99.90
6363;DHT22;3214;49.932;8.494;2024-03-02T08:51:03;7.00;99.90
6363;DHT22;3214;49.932;8.494;2024-03-02T08:53:34;7.00;99.90
6363;DHT22;3214;49.932;8.494;2024-03-02T08:56:01;7.10;99.90
6363;DHT22;3214;49.932;8.494;2024-03-02T08:58:30;7.10;99.90
6363;DHT22;3214;49.932;8.494;2024-03-02T09:00:57;7.20;99.90
6363;DHT22;3214;49.932;8.494;2024-03-02T09:03:24;7.30;99.90
6363;DHT22;3214;49.932;8.494;2024-03-02T09:05:51;7.30;99.90
6363;DHT22;3214;49.932;8.494;2024-03-02T09:08:18;7.40;99.90
6363;DHT22;3214;49.932;8.494;2024-03-02T09:10:46;7.50;99.90
6363;DHT22;3214;49.932;8.494;2024-03-02T09:13:13;7.50;99.90
6363;DHT22;3214;49.932;8.494;2024-03-02T09:15:40;7.60;99.90
6363;DHT22;3214;49.932;8.494;2024-03-02T09:18:07;7.70;99.90
6363;DHT22;3214;49.932;8.494;2024-03-02T09:20:33;7.80;99.90
6363;DHT22;3214;49.932;8.494;2024-03-02T09:23:00;7.80;99.90
6363;DHT22;3214;49.932;8.494;2024-03-02T09:25:27;7.90;99.90
6363;DHT22;3214;49.932;8.494;2024-03-02T09:27:55;8.00;99.90
6363;DHT22;3214;49.932;8.494;2024-03-02T09:30:22;8.10;99.90
6363;DHT22;3214;49.932;8.494;2024-03-02T09:32:48;8.20;99.90
6363;DHT22;3214;49.932;8.494;2024-03-02T09:35:15;8.30;99.90
6363;DHT22;3214;49.932;8.494;2024-03-02T09:37:42;8.30;99.90
6363;DHT22;3214;49.932;8.494;2024-03-02T09:40:10;8.40;99.90
6363;DHT22;3214;49.932;8.494;2024-03-02T09:42:37;8.40;99.90
6363;DHT22;3214;49.932;8.494;2024-03-02T09:45:07;8.50;99.90
6363;DHT22;3214;49.932;8.494;2024-03-02T09:47:34;8.70;99.90
6363;DHT22;3214;49.932;8.494;2024-03-02T09:50:01;8.80;99.90
6363;DHT22;3214;49.932;8.494;2024-03-02T09:52:27;9.00;99.90
6363;DHT22;3214;49.932;8.494;2024-03-02T09:54:54;9.10;99.90
6363;DHT22;3214;49.932;8.494;2024-03-02T09:57:21;9.20;99.90
6363;DHT22;3214;49.932;8.494;2024-03-02T09:59:48;9.20;99.90
6363;DHT22;3214;49.932;8.494;2024-03-02T10:02:16;9.30;99.90
6363;DHT22;3214;49.932;8.494;2024-03-02T10:04:44;9.40;99.90
6363;DHT22;3214;49.932;8.494;2024-03-02T10:07:13;9.40;99.90
6363;DHT22;3214;49.932;8.494;2024-03-02T10:09:40;9.60;99.90
6363;DHT22;3214;49.932;8.494;2024-03-02T10:12:08;9.80;99.90
6363;DHT22;3214;49.932;8.494;2024-03-02T10:14:35;9.90;99.90
6363;DHT22;3214;49.932;8.494;2024-03-02T10:17:03;9.90;99.90
6363;DHT22;3214;49.932;8.494;2024-03-02T10:19:32;9.90;99.90
6363;DHT22;3214;49.932;8.494;2024-03-02T10:22:00;9.90;99.90
6363;DHT22;3214;49.932;8.494;2024-03-02T10:24:28;9.90;99.90
6363;DHT22;3214;49.932;8.494;2024-03-02T10:27:01;9.90;99.90
6363;DHT22;3214;49.932;8.494;2024-03-02T10:29:29;10.00;99.90
6363;DHT22;3214;49.932;8.494;2024-03-02T10:31:57;10.00;99.90
6363;DHT22;3214;49.932;8.494;2024-03-02T10:34:24;10.00;99.90
6363;DHT22;3214;49.932;8.494;2024-03-02T10:36:53;10.10;99.90
6363;DHT22;3214;49.932;8.494;2024-03-02T10:39:21;10.10;99.90
6363;DHT22;3214;49.932;8.494;2024-03-02T10:41:49;10.10;99.90
6363;DHT22;3214;49.932;8.494;2024-03-02T10:44:19;10.10;99.90
6363;DHT22;3214;49.932;8.494;2024-03-02T10:46:47;10.20;99.90
6363;DHT22;3214;49.932;8.494;2024-03-02T10:49:15;10.30;99.90
6363;DHT22;3214;49.932;8.494;2024-03-02T10:51:43;10.40;99.90
6363;DHT22;3214;49.932;8.494;2024-03-02T10:54:11;10.50;99.90
6363;DHT22;3214;49.932;8.494;2024-03-02T10:56:39;10.60;99.90
6363;DHT22;3214;49.932;8.494;2024-03-02T10:59:16;10.60;99.90
6363;DHT22;3214;49.932;8.494;2024-03-02T11:01:47;10.70;99.90
6363;DHT22;3214;49.932;8.494;2024-03-02T11:04:16;10.70;99.90
6363;DHT22;3214;49.932;8.494;2024-03-02T11:06:48;10.80;99.90
6363;DHT22;3214;49.932;8.494;2024-03-02T11:09:19;10.80;99.90
6363;DHT22;3214;49.932;8.494;2024-03-02T11:11:52;11.00;99.90
6363;DHT22;3214;49.932;8.494;2024-03-02T11:14:24;11.00;99.90
6363;DHT22;3214;49.932;8.494;2024-03-02T11:16:51;11.10;99.90
6363;DHT22;3214;49.932;8.494;2024-03-02T11:19:19;11.30;99.90
6363;DHT22;3214;49.932;8.494;2024-03-02T11:21:47;11.30;99.90
6363;DHT22;3214;49.932;8.494;2024-03-02T11:24:31;11.20;99.90
6363;DHT22;3214;49.932;8.494;2024-03-02T11:27:03;11.20;99.90
6363;DHT22;3214;49.932;8.494;2024-03-02T11:29:46;11.20;99.90
6363;DHT22;3214;49.932;8.494;2024-03-02T11:32:16;11.20;99.90
6363;DHT22;3214;49.932;8.494;2024-03-02T11:34:44;11.20;99.90
6363;DHT22;3214;49.932;8.494;2024-03-02T11:37:13;11.20;99.90
6363;DHT22;3214;49.932;8.494;2024-03-02T11:39:42;11.30;99.90
6363;DHT22;3214;49.932;8.494;2024-03-02T11:42:11;11.30;99.90
6363;DHT22;3214;49.932;8.494;2024-03-02T11:44:39;11.40;99.90
6363;DHT22;3214;49.932;8.494;2024-03-02T11:47:08;11.40;99.90
6363;DHT22;3214;49.932;8.494;2024-03-02T11:49:37;11.40;99.90
6363;DHT22;3214;49.932;8.494;2024-03-02T11:52:06;11.50;99.90
6363;DHT22;3214;49.932;8.494;2024-03-02T11:54:33;11.60;99.90
6363;DHT22;3214;49.932;8.494;2024-03-02T11:57:03;11.70;99.90
6363;DHT22;3214;49.932;8.494;2024-03-02T11:59:30;11.80;99.90
6363;DHT22;3214;49.932;8.494;2024-03-02T12:01:58;11.90;99.90
6363;DHT22;3214;49.932;8.494;2024-03-02T12:04:25;12.10;99.90
6363;DHT22;3214;49.932;8.494;2024-03-02T12:06:55;12.30;99.90
6363;DHT22;3214;49.932;8.494;2024-03-02T12:09:22;12.40;99.90
6363;DHT22;3214;49.932;8.494;2024-03-02T12:12:02;12.60;99.90
6363;DHT22;3214;49.932;8.494;2024-03-02T12:14:30;12.80;99.90
6363;DHT22;3214;49.932;8.494;2024-03-02T12:16:57;13.20;99.90
6363;DHT22;3214;49.932;8.494;2024-03-02T12:19:25;13.50;99.90
6363;DHT22;3214;49.932;8.494;2024-03-02T12:21:52;13.90;99.90
6363;DHT22;3214;49.932;8.494;2024-03-02T12:24:18;14.10;99.90
6363;DHT22;3214;49.932;8.494;2024-03-02T12:26:45;14.30;99.90
6363;DHT22;3214;49.932;8.494;2024-03-02T12:29:14;14.40;99.90
6363;DHT22;3214;49.932;8.494;2024-03-02T12:31:42;14.40;99.90
6363;DHT22;3214;49.932;8.494;2024-03-02T12:34:12;14.60;99.90
6363;DHT22;3214;49.932;8.494;2024-03-02T12:36:39;14.70;99.90
6363;DHT22;3214;49.932;8.494;2024-03-02T12:39:07;14.70;99.90
6363;DHT22;3214;49.932;8.494;2024-03-02T12:41:36;14.70;99.90
6363;DHT22;3214;49.932;8.494;2024-03-02T12:44:02;14.60;99.90
6363;DHT22;3214;49.932;8.494;2024-03-02T12:46:31;14.70;99.90
6363;DHT22;3214;49.932;8.494;2024-03-02T12:48:58;14.60;99.90
6363;DHT22;3214;49.932;8.494;2024-03-02T12:51:27;14.40;99.90
6363;DHT22;3214;49.932;8.494;2024-03-02T12:53:55;14.30;99.90
6363;DHT22;3214;49.932;8.494;2024-03-02T12:56:22;14.20;99.90
6363;DHT22;3214;49.932;8.494;2024-03-02T12:58:53;14.10;99.90
6363;DHT22;3214;49.932;8.494;2024-03-02T13:01:21;14.10;99.90
6363;DHT22;3214;49.932;8.494;2024-03-02T13:03:51;14.10;99.90
6363;DHT22;3214;49.932;8.494;2024-03-02T13:06:20;14.00;99.90
6363;DHT22;3214;49.932;8.494;2024-03-02T13:08:48;14.00;99.90
6363;DHT22;3214;49.932;8.494;2024-03-02T13:11:16;14.10;99.90
6363;DHT22;3214;49.932;8.494;2024-03-02T13:13:43;14.10;99.90
6363;DHT22;3214;49.932;8.494;2024-03-02T13:16:12;14.20;99.90
6363;DHT22;3214;49.932;8.494;2024-03-02T13:18:41;14.10;99.90
6363;DHT22;3214;49.932;8.494;2024-03-02T13:21:10;14.10;99.90
6363;DHT22;3214;49.932;8.494;2024-03-02T13:23:38;14.10;99.90
6363;DHT22;3214;49.932;8.494;2024-03-02T13:26:05;14.00;99.90
6363;DHT22;3214;49.932;8.494;2024-03-02T13:28:33;14.00;99.90
6363;DHT22;3214;49.932;8.494;2024-03-02T13:31:01;14.00;99.90
6363;DHT22;3214;49.932;8.494;2024-03-02T13:33:28;14.10;99.90
6363;DHT22;3214;49.932;8.494;2024-03-02T13:35:56;14.10;99.90
6363;DHT22;3214;49.932;8.494;2024-03-02T13:38:25;14.20;99.90
6363;DHT22;3214;49.932;8.494;2024-03-02T13:40:55;14.40;99.90
6363;DHT22;3214;49.932;8.494;2024-03-02T13:43:23;14.80;99.90
6363;DHT22;3214;49.932;8.494;2024-03-02T13:45:51;15.20;99.90
6363;DHT22;3214;49.932;8.494;2024-03-02T13:48:19;15.20;99.90
6363;DHT22;3214;49.932;8.494;2024-03-02T13:50:47;15.00;99.90
6363;DHT22;3214;49.932;8.494;2024-03-02T13:53:15;14.80;99.90
6363;DHT22;3214;49.932;8.494;2024-03-02T13:55:44;14.60;99.90
6363;DHT22;3214;49.932;8.494;2024-03-02T13:58:11;14.50;99.90
6363;DHT22;3214;49.932;8.494;2024-03-02T14:00:38;14.50;99.90
6363;DHT22;3214;49.932;8.494;2024-03-02T14:03:06;14.40;99.90
6363;DHT22;3214;49.932;8.494;2024-03-02T14:05:33;14.50;99.90
6363;DHT22;3214;49.932;8.494;2024-03-02T14:08:00;14.60;99.90
6363;DHT22;3214;49.932;8.494;2024-03-02T14:10:28;14.60;99.90
6363;DHT22;3214;49.932;8.494;2024-03-02T14:12:56;14.50;99.90
6363;DHT22;3214;49.932;8.494;2024-03-02T14:15:23;14.50;99.90
6363;DHT22;3214;49.932;8.494;2024-03-02T14:17:51;14.40;99.90
6363;DHT22;3214;49.932;8.494;2024-03-02T14:20:18;14.40;99.90
6363;DHT22;3214;49.932;8.494;2024-03-02T14:22:48;14.40;99.90
6363;DHT22;3214;49.932;8.494;2024-03-02T14:25:15;14.50;99.90
6363;DHT22;3214;49.932;8.494;2024-03-02T14:27:43;14.60;99.90
6363;DHT22;3214;49.932;8.494;2024-03-02T14:30:13;14.80;99.90
6363;DHT22;3214;49.932;8.494;2024-03-02T14:32:41;15.00;99.90
6363;DHT22;3214;49.932;8.494;2024-03-02T14:35:09;15.10;99.90
6363;DHT22;3214;49.932;8.494;2024-03-02T14:37:37;15.40;99.90
6363;DHT22;3214;49.932;8.494;2024-03-02T14:40:06;15.60;99.90
6363;DHT22;3214;49.932;8.494;2024-03-02T14:42:35;15.60;99.90
6363;DHT22;3214;49.932;8.494;2024-03-02T14:45:03;15.60;99.90
6363;DHT22;3214;49.932;8.494;2024-03-02T14:47:33;15.50;99.90
6363;DHT22;3214;49.932;8.494;2024-03-02T14:50:01;15.40;99.90
6363;DHT22;3214;49.932;8.494;2024-03-02T14:52:32;15.30;99.90
6363;DHT22;3214;49.932;8.494;2024-03-02T14:54:59;15.20;99.90
6363;DHT22;3214;49.932;8.494;2024-03-02T14:57:28;15.20;99.90
6363;DHT22;3214;49.932;8.494;2024-03-02T14:59:56;15.10;99.90
6363;DHT22;3214;49.932;8.494;2024-03-02T15:02:23;15.10;99.90
6363;DHT22;3214;49.932;8.494;2024-03-02T15:04:54;15.00;99.90
6363;DHT22;3214;49.932;8.494;2024-03-02T15:07:21;15.00;99.90
6363;DHT22;3214;49.932;8.494;2024-03-02T15:09:48;14.90;99.90
6363;DHT22;3214;49.932;8.494;2024-03-02T15:12:16;14.90;99.90
6363;DHT22;3214;49.932;8.494;2024-03-02T15:14:44;14.90;99.90
6363;DHT22;3214;49.932;8.494;2024-03-02T15:17:13;14.80;99.90
6363;DHT22;3214;49.932;8.494;2024-03-02T15:19:43;14.80;99.90
6363;DHT22;3214;49.932;8.494;2024-03-02T15:22:12;14.80;99.90
6363;DHT22;3214;49.932;8.494;2024-03-02T15:24:39;14.80;99.90
6363;DHT22;3214;49.932;8.494;2024-03-02T15:27:07;14.80;99.90
6363;DHT22;3214;49.932;8.494;2024-03-02T15:29:34;14.70;99.90
6363;DHT22;3214;49.932;8.494;2024-03-02T15:32:02;14.70;99.90
6363;DHT22;3214;49.932;8.494;2024-03-02T15:34:32;14.60;99.90
6363;DHT22;3214;49.932;8.494;2024-03-02T15:37:00;14.60;99.90
6363;DHT22;3214;49.932;8.494;2024-03-02T15:39:29;14.60;99.90
6363;DHT22;3214;49.932;8.494;2024-03-02T15:41:56;14.60;99.90
6363;DHT22;3214;49.932;8.494;2024-03-02T15:44:23;14.50;99.90
6363;DHT22;3214;49.932;8.494;2024-03-02T15:46:51;14.50;99.90
6363;DHT22;3214;49.932;8.494;2024-03-02T15:49:18;14.40;99.90
6363;DHT22;3214;49.932;8.494;2024-03-02T15:51:46;14.30;99.90
6363;DHT22;3214;49.932;8.494;2024-03-02T15:54:13;14.30;99.90
6363;DHT22;3214;49.932;8.494;2024-03-02T15:56:42;14.20;99.90
6363;DHT22;3214;49.932;8.494;2024-03-02T15:59:10;14.10;99.90
6363;DHT22;3214;49.932;8.494;2024-03-02T16:01:37;14.00;99.90
6363;DHT22;3214;49.932;8.494;2024-03-02T16:04:05;13.90;99.90
6363;DHT22;3214;49.932;8.494;2024-03-02T16:06:32;13.80;99.90
6363;DHT22;3214;49.932;8.494;2024-03-02T16:09:00;13.70;99.90
6363;DHT22;3214;49.932;8.494;2024-03-02T16:11:30;13.50;99.90
6363;DHT22;3214;49.932;8.494;2024-03-02T16:14:01;13.50;99.90
6363;DHT22;3214;49.932;8.494;2024-03-02T16:16:28;13.40;99.90